Weatherford, Texas
Current Conditions -  °F | °C
As of 2:53 PM on Saturday 25 Oct 2014 (Local Time) from KMWL Reporting Station
Clear Clear  
Wind Chill: 89°   Ceiling: Unl
Heat Index: 89°   Visibility: 10mi
Dew Point: 57°   Wind: 8mph
Humidity: 34%   Direction: 190°S
Pressure: 30.07"   Gusts: NA
Location:  32.76°N, 97.8°W
Report Text: KMWL 251953Z AUTO 19007KT 10SM CLR 32/14 A3007 RMK AO2 SLP168 T03170139
Loading
Personal Weather Stations






























Interactive Weather Map New forecast layout! Learn more

10-Day Weather Forecast

Advertisements
Track Severe Weather on mobile